sensor_id;sensor_type;location;lat;lon;timestamp;pressure;altitude;pressure_sealevel;temperature;humidity
59531;BME280;45349;48.692;8.186;2023-12-28T00:00:49;148624.25;;;9.90;42.24
59531;BME280;45349;48.692;8.186;2023-12-28T00:03:15;148610.56;;;9.85;43.29
59531;BME280;45349;48.692;8.186;2023-12-28T00:05:43;148590.66;;;9.77;43.17
59531;BME280;45349;48.692;8.186;2023-12-28T00:08:10;148550.81;;;9.60;43.85
59531;BME280;45349;48.692;8.186;2023-12-28T00:10:36;148619.25;;;9.88;43.49
59531;BME280;45349;48.692;8.186;2023-12-28T00:13:03;148659.09;;;10.05;42.17
59531;BME280;45349;48.692;8.186;2023-12-28T00:15:30;148701.44;;;10.23;41.25
59531;BME280;45349;48.692;8.186;2023-12-28T00:17:56;148669.06;;;10.09;41.49
59531;BME280;45349;48.692;8.186;2023-12-28T00:20:23;148660.38;;;10.06;41.91
59531;BME280;45349;48.692;8.186;2023-12-28T00:22:51;148624.25;;;9.90;43.14
59531;BME280;45349;48.692;8.186;2023-12-28T00:25:17;148684.00;;;10.15;41.75
59531;BME280;45349;48.692;8.186;2023-12-28T00:27:44;148737.53;;;10.38;41.72
59531;BME280;45349;48.692;8.186;2023-12-28T00:30:13;148741.34;;;10.39;41.06
59531;BME280;45349;48.692;8.186;2023-12-28T00:32:39;148768.75;;;10.51;40.29
59531;BME280;45349;48.692;8.186;2023-12-28T00:35:08;148751.31;;;10.43;39.67
59531;BME280;45349;48.692;8.186;2023-12-28T00:37:35;148798.59;;;10.63;39.59
59531;BME280;45349;48.692;8.186;2023-12-28T00:40:04;148826.00;;;10.74;39.44
59531;BME280;45349;48.692;8.186;2023-12-28T00:42:31;148837.22;;;10.79;38.38
59531;BME280;45349;48.692;8.186;2023-12-28T00:44:57;148758.78;;;10.46;40.04
59531;BME280;45349;48.692;8.186;2023-12-28T00:47:24;148783.69;;;10.57;39.47
59531;BME280;45349;48.692;8.186;2023-12-28T00:49:51;148806.06;;;10.66;39.08
59531;BME280;45349;48.692;8.186;2023-12-28T00:52:18;148826.00;;;10.74;38.77
59531;BME280;45349;48.692;8.186;2023-12-28T00:54:45;148822.28;;;10.73;38.54
59531;BME280;45349;48.692;8.186;2023-12-28T00:57:12;148779.94;;;10.55;41.51
59531;BME280;45349;48.692;8.186;2023-12-28T00:59:40;148764.97;;;10.49;39.91
59531;BME280;45349;48.692;8.186;2023-12-28T01:02:07;148726.34;;;10.33;41.02
59531;BME280;45349;48.692;8.186;2023-12-28T01:04:34;148691.47;;;10.18;40.39
59531;BME280;45349;48.692;8.186;2023-12-28T01:07:02;148711.41;;;10.27;41.06
59531;BME280;45349;48.692;8.186;2023-12-28T01:09:33;148706.44;;;10.25;40.85
59531;BME280;45349;48.692;8.186;2023-12-28T01:12:00;148705.16;;;10.24;41.79
59531;BME280;45349;48.692;8.186;2023-12-28T01:14:28;148635.47;;;9.95;43.71
59531;BME280;45349;48.692;8.186;2023-12-28T01:16:54;148611.78;;;9.85;42.42
59531;BME280;45349;48.692;8.186;2023-12-28T01:19:21;148674.03;;;10.11;40.78
59531;BME280;45349;48.692;8.186;2023-12-28T01:21:48;148695.19;;;10.20;39.85
59531;BME280;45349;48.692;8.186;2023-12-28T01:24:15;148656.63;;;10.04;40.82
59531;BME280;45349;48.692;8.186;2023-12-28T01:26:42;148667.81;;;10.09;40.61
59531;BME280;45349;48.692;8.186;2023-12-28T01:29:08;148628.00;;;9.92;40.54
59531;BME280;45349;48.692;8.186;2023-12-28T01:31:36;148732.56;;;10.36;38.37
59531;BME280;45349;48.692;8.186;2023-12-28T01:34:04;148806.06;;;10.66;37.59
59531;BME280;45349;48.692;8.186;2023-12-28T01:36:32;148807.34;;;10.67;38.83
59531;BME280;45349;48.692;8.186;2023-12-28T01:38:59;148865.84;;;10.91;38.47
59531;BME280;45349;48.692;8.186;2023-12-28T01:41:26;148859.66;;;10.88;38.02
59531;BME280;45349;48.692;8.186;2023-12-28T01:43:53;148840.94;;;10.81;39.43
59531;BME280;45349;48.692;8.186;2023-12-28T01:46:21;148845.94;;;10.83;38.82
59531;BME280;45349;48.692;8.186;2023-12-28T01:48:50;148816.03;;;10.70;39.78
59531;BME280;45349;48.692;8.186;2023-12-28T01:51:19;148925.66;;;11.16;37.21
59531;BME280;45349;48.692;8.186;2023-12-28T01:53:47;148948.09;;;11.25;37.00
59531;BME280;45349;48.692;8.186;2023-12-28T01:56:15;148915.69;;;11.12;37.63
59531;BME280;45349;48.692;8.186;2023-12-28T01:58:44;148888.28;;;11.00;38.67
59531;BME280;45349;48.692;8.186;2023-12-28T02:01:11;148832.25;;;10.77;40.60
59531;BME280;45349;48.692;8.186;2023-12-28T02:03:37;148898.25;;;11.04;37.60
59531;BME280;45349;48.692;8.186;2023-12-28T02:06:06;148895.75;;;11.03;37.62
59531;BME280;45349;48.692;8.186;2023-12-28T02:08:33;148929.38;;;11.17;39.50
59531;BME280;45349;48.692;8.186;2023-12-28T02:11:00;148920.69;;;11.14;39.02
59531;BME280;45349;48.692;8.186;2023-12-28T02:13:28;148914.47;;;11.11;37.96
59531;BME280;45349;48.692;8.186;2023-12-28T02:15:57;148970.53;;;11.34;36.61
59531;BME280;45349;48.692;8.186;2023-12-28T02:18:34;148975.50;;;11.36;38.63
59531;BME280;45349;48.692;8.186;2023-12-28T02:21:06;148950.59;;;11.26;38.70
59531;BME280;45349;48.692;8.186;2023-12-28T02:23:32;148928.16;;;11.17;39.23
59531;BME280;45349;48.692;8.186;2023-12-28T02:26:00;148938.13;;;11.21;39.11
59531;BME280;45349;48.692;8.186;2023-12-28T02:28:27;148946.81;;;11.25;39.52
59531;BME280;45349;48.692;8.186;2023-12-28T02:30:54;148968.03;;;11.33;38.78
59531;BME280;45349;48.692;8.186;2023-12-28T02:33:26;148982.97;;;11.40;38.80
59531;BME280;45349;48.692;8.186;2023-12-28T02:35:58;148969.25;;;11.34;37.85
59531;BME280;45349;48.692;8.186;2023-12-28T02:38:29;148954.31;;;11.28;39.54
59531;BME280;45349;48.692;8.186;2023-12-28T02:40:56;149015.38;;;11.53;38.71
59531;BME280;45349;48.692;8.186;2023-12-28T02:43:25;149054.00;;;11.69;37.56
59531;BME280;45349;48.692;8.186;2023-12-28T02:45:52;149001.66;;;11.47;40.88
59531;BME280;45349;48.692;8.186;2023-12-28T02:48:18;149022.88;;;11.56;36.89
59531;BME280;45349;48.692;8.186;2023-12-28T02:50:45;149011.63;;;11.51;37.39
59531;BME280;45349;48.692;8.186;2023-12-28T02:53:12;149026.59;;;11.58;38.37
59531;BME280;45349;48.692;8.186;2023-12-28T02:55:39;149016.63;;;11.54;38.43
59531;BME280;45349;48.692;8.186;2023-12-28T02:58:05;149025.34;;;11.57;37.48
59531;BME280;45349;48.692;8.186;2023-12-28T03:00:33;149055.22;;;11.70;38.44
59531;BME280;45349;48.692;8.186;2023-12-28T03:03:00;149042.81;;;11.64;39.66
59531;BME280;45349;48.692;8.186;2023-12-28T03:05:26;149063.97;;;11.73;39.00
59531;BME280;45349;48.692;8.186;2023-12-28T03:07:53;149052.75;;;11.69;39.78
59531;BME280;45349;48.692;8.186;2023-12-28T03:10:20;149056.50;;;11.70;39.17
59531;BME280;45349;48.692;8.186;2023-12-28T03:12:47;149087.63;;;11.83;38.84
59531;BME280;45349;48.692;8.186;2023-12-28T03:15:16;149106.34;;;11.91;38.93
59531;BME280;45349;48.692;8.186;2023-12-28T03:17:44;149143.81;;;12.06;38.69
59531;BME280;45349;48.692;8.186;2023-12-28T03:20:11;149197.41;;;12.29;37.56
59531;BME280;45349;48.692;8.186;2023-12-28T03:22:37;149177.44;;;12.20;37.17
59531;BME280;45349;48.692;8.186;2023-12-28T03:25:05;149171.25;;;12.18;37.82
59531;BME280;45349;48.692;8.186;2023-12-28T03:27:32;149146.31;;;12.07;38.89
59531;BME280;45349;48.692;8.186;2023-12-28T03:29:58;149147.53;;;12.08;38.66
59531;BME280;45349;48.692;8.186;2023-12-28T03:32:25;149152.50;;;12.10;39.31
59531;BME280;45349;48.692;8.186;2023-12-28T03:34:53;149141.31;;;12.05;38.47
59531;BME280;45349;48.692;8.186;2023-12-28T03:37:19;149138.81;;;12.04;39.96
59531;BME280;45349;48.692;8.186;2023-12-28T03:39:46;149125.03;;;11.99;40.69
59531;BME280;45349;48.692;8.186;2023-12-28T03:42:13;149110.09;;;11.92;41.15
59531;BME280;45349;48.692;8.186;2023-12-28T03:44:40;149126.31;;;11.99;40.98
59531;BME280;45349;48.692;8.186;2023-12-28T03:47:07;149126.31;;;11.99;41.45
59531;BME280;45349;48.692;8.186;2023-12-28T03:49:33;149101.38;;;11.89;41.84
59531;BME280;45349;48.692;8.186;2023-12-28T03:52:01;149121.31;;;11.97;42.11
59531;BME280;45349;48.692;8.186;2023-12-28T03:54:28;149093.91;;;11.86;43.47
59531;BME280;45349;48.692;8.186;2023-12-28T03:56:55;149106.34;;;11.91;43.10
59531;BME280;45349;48.692;8.186;2023-12-28T03:59:22;149100.09;;;11.88;44.51
59531;BME280;45349;48.692;8.186;2023-12-28T04:01:49;149112.56;;;11.93;44.12
59531;BME280;45349;48.692;8.186;2023-12-28T04:04:16;149110.09;;;11.92;46.02
59531;BME280;45349;48.692;8.186;2023-12-28T04:06:42;149098.88;;;11.88;47.25
59531;BME280;45349;48.692;8.186;2023-12-28T04:09:12;149092.63;;;11.85;47.30
59531;BME280;45349;48.692;8.186;2023-12-28T04:11:39;149088.91;;;11.84;47.30
59531;BME280;45349;48.692;8.186;2023-12-28T04:14:06;149090.13;;;11.84;48.35
59531;BME280;45349;48.692;8.186;2023-12-28T04:16:32;149085.16;;;11.82;48.82
59531;BME280;45349;48.692;8.186;2023-12-28T04:18:59;149066.47;;;11.74;49.65
59531;BME280;45349;48.692;8.186;2023-12-28T04:21:26;149073.94;;;11.77;49.65
59531;BME280;45349;48.692;8.186;2023-12-28T04:23:52;149097.59;;;11.87;51.09
59531;BME280;45349;48.692;8.186;2023-12-28T04:26:20;149097.59;;;11.87;51.18
59531;BME280;45349;48.692;8.186;2023-12-28T04:28:47;149085.16;;;11.82;52.38
59531;BME280;45349;48.692;8.186;2023-12-28T04:31:14;149093.91;;;11.86;51.37
59531;BME280;45349;48.692;8.186;2023-12-28T04:33:40;149101.38;;;11.89;51.55
59531;BME280;45349;48.692;8.186;2023-12-28T04:36:08;149087.63;;;11.83;53.32
59531;BME280;45349;48.692;8.186;2023-12-28T04:38:35;149072.69;;;11.77;54.36
59531;BME280;45349;48.692;8.186;2023-12-28T04:41:02;149075.16;;;11.78;53.45
59531;BME280;45349;48.692;8.186;2023-12-28T04:43:30;149049.03;;;11.67;55.39
59531;BME280;45349;48.692;8.186;2023-12-28T04:45:56;149066.47;;;11.74;53.74
59531;BME280;45349;48.692;8.186;2023-12-28T04:48:25;149042.81;;;11.64;55.23
59531;BME280;45349;48.692;8.186;2023-12-28T04:50:52;149041.53;;;11.64;55.16
59531;BME280;45349;48.692;8.186;2023-12-28T04:53:19;149059.00;;;11.71;54.50
59531;BME280;45349;48.692;8.186;2023-12-28T04:55:46;149068.97;;;11.75;54.63
59531;BME280;45349;48.692;8.186;2023-12-28T04:58:12;149075.16;;;11.78;53.95
59531;BME280;45349;48.692;8.186;2023-12-28T05:00:40;149045.31;;;11.65;54.60
59531;BME280;45349;48.692;8.186;2023-12-28T05:03:07;149039.03;;;11.63;55.29
59531;BME280;45349;48.692;8.186;2023-12-28T05:05:34;149039.03;;;11.63;54.37
59531;BME280;45349;48.692;8.186;2023-12-28T05:08:00;149061.47;;;11.72;55.00
59531;BME280;45349;48.692;8.186;2023-12-28T05:10:27;149037.81;;;11.62;54.98
59531;BME280;45349;48.692;8.186;2023-12-28T05:12:54;149032.84;;;11.60;56.84
59531;BME280;45349;48.692;8.186;2023-12-28T05:15:21;149029.06;;;11.59;55.77
59531;BME280;45349;48.692;8.186;2023-12-28T05:17:49;149052.75;;;11.69;55.34
59531;BME280;45349;48.692;8.186;2023-12-28T05:20:16;149057.72;;;11.71;53.85
59531;BME280;45349;48.692;8.186;2023-12-28T05:22:43;149032.84;;;11.60;54.36
59531;BME280;45349;48.692;8.186;2023-12-28T05:25:10;149027.84;;;11.58;55.21
59531;BME280;45349;48.692;8.186;2023-12-28T05:27:36;149031.56;;;11.60;56.04
59531;BME280;45349;48.692;8.186;2023-12-28T05:30:04;149029.06;;;11.59;54.31
59531;BME280;45349;48.692;8.186;2023-12-28T05:32:30;149022.88;;;11.56;54.02
59531;BME280;45349;48.692;8.186;2023-12-28T05:34:58;149009.13;;;11.50;55.03
59531;BME280;45349;48.692;8.186;2023-12-28T05:37:25;149015.38;;;11.53;54.54
59531;BME280;45349;48.692;8.186;2023-12-28T05:39:52;149006.63;;;11.49;55.07
59531;BME280;45349;48.692;8.186;2023-12-28T05:42:18;148996.66;;;11.45;54.19
59531;BME280;45349;48.692;8.186;2023-12-28T05:44:45;148996.66;;;11.45;53.83
59531;BME280;45349;48.692;8.186;2023-12-28T05:47:12;148990.47;;;11.43;55.34
59531;BME280;45349;48.692;8.186;2023-12-28T05:49:38;149005.41;;;11.49;54.06
59531;BME280;45349;48.692;8.186;2023-12-28T05:52:06;148978.00;;;11.37;54.77
59531;BME280;45349;48.692;8.186;2023-12-28T05:54:34;148965.53;;;11.32;55.41
59531;BME280;45349;48.692;8.186;2023-12-28T05:57:00;148975.50;;;11.36;55.16
59531;BME280;45349;48.692;8.186;2023-12-28T05:59:27;148974.25;;;11.36;56.46
59531;BME280;45349;48.692;8.186;2023-12-28T06:01:53;148982.97;;;11.40;56.46
59531;BME280;45349;48.692;8.186;2023-12-28T06:04:20;148969.25;;;11.34;56.96
59531;BME280;45349;48.692;8.186;2023-12-28T06:06:47;148986.69;;;11.41;57.02
59531;BME280;45349;48.692;8.186;2023-12-28T06:09:15;148963.06;;;11.31;56.75
59531;BME280;45349;48.692;8.186;2023-12-28T06:11:42;148974.25;;;11.36;56.38
59531;BME280;45349;48.692;8.186;2023-12-28T06:14:11;148961.78;;;11.31;57.08
59531;BME280;45349;48.692;8.186;2023-12-28T06:16:38;148979.22;;;11.38;54.63
59531;BME280;45349;48.692;8.186;2023-12-28T06:19:05;148979.22;;;11.38;54.57
59531;BME280;45349;48.692;8.186;2023-12-28T06:21:32;148939.34;;;11.21;53.84
59531;BME280;45349;48.692;8.186;2023-12-28T06:24:02;148899.53;;;11.05;54.71
59531;BME280;45349;48.692;8.186;2023-12-28T06:26:30;148855.88;;;10.87;56.32
59531;BME280;45349;48.692;8.186;2023-12-28T06:28:58;148826.00;;;10.74;56.13
59531;BME280;45349;48.692;8.186;2023-12-28T06:31:25;148813.53;;;10.69;57.06
59531;BME280;45349;48.692;8.186;2023-12-28T06:33:51;148794.88;;;10.61;56.91
59531;BME280;45349;48.692;8.186;2023-12-28T06:36:18;148797.38;;;10.62;56.98
59531;BME280;45349;48.692;8.186;2023-12-28T06:38:45;148829.75;;;10.76;56.59
59531;BME280;45349;48.692;8.186;2023-12-28T06:41:12;148832.25;;;10.77;57.02
59531;BME280;45349;48.692;8.186;2023-12-28T06:43:40;148812.31;;;10.69;57.29
59531;BME280;45349;48.692;8.186;2023-12-28T06:46:06;148793.59;;;10.61;57.79
59531;BME280;45349;48.692;8.186;2023-12-28T06:48:33;148755.03;;;10.45;58.83
59531;BME280;45349;48.692;8.186;2023-12-28T06:51:00;148741.34;;;10.39;59.73
59531;BME280;45349;48.692;8.186;2023-12-28T06:53:27;148707.66;;;10.25;59.45
59531;BME280;45349;48.692;8.186;2023-12-28T06:55:54;148757.50;;;10.46;57.19
59531;BME280;45349;48.692;8.186;2023-12-28T06:58:21;148782.41;;;10.56;56.92
59531;BME280;45349;48.692;8.186;2023-12-28T07:00:49;148802.34;;;10.65;56.71
59531;BME280;45349;48.692;8.186;2023-12-28T07:03:18;148799.84;;;10.63;56.22
59531;BME280;45349;48.692;8.186;2023-12-28T07:05:44;148789.91;;;10.59;57.77
59531;BME280;45349;48.692;8.186;2023-12-28T07:08:11;148777.44;;;10.54;58.59
59531;BME280;45349;48.692;8.186;2023-12-28T07:10:38;148784.91;;;10.57;57.95
59531;BME280;45349;48.692;8.186;2023-12-28T07:13:05;148798.59;;;10.63;57.69
59531;BME280;45349;48.692;8.186;2023-12-28T07:15:31;148796.09;;;10.62;56.92
59531;BME280;45349;48.692;8.186;2023-12-28T07:17:59;148824.78;;;10.74;57.23
59531;BME280;45349;48.692;8.186;2023-12-28T07:20:26;148806.06;;;10.66;58.60
59531;BME280;45349;48.692;8.186;2023-12-28T07:22:52;148791.16;;;10.60;56.92
59531;BME280;45349;48.692;8.186;2023-12-28T07:25:19;148814.81;;;10.70;56.74
59531;BME280;45349;48.692;8.186;2023-12-28T07:27:46;148811.03;;;10.68;56.81
59531;BME280;45349;48.692;8.186;2023-12-28T07:30:13;148783.69;;;10.57;57.44
59531;BME280;45349;48.692;8.186;2023-12-28T07:32:42;148761.28;;;10.47;58.61
59531;BME280;45349;48.692;8.186;2023-12-28T07:35:10;148757.50;;;10.46;58.44
59531;BME280;45349;48.692;8.186;2023-12-28T07:37:37;148715.13;;;10.28;58.68
59531;BME280;45349;48.692;8.186;2023-12-28T07:40:04;148700.19;;;10.22;61.12
59531;BME280;45349;48.692;8.186;2023-12-28T07:42:31;148686.50;;;10.16;61.51
59531;BME280;45349;48.692;8.186;2023-12-28T07:44:58;148651.63;;;10.02;64.18
59531;BME280;45349;48.692;8.186;2023-12-28T07:47:24;148631.72;;;9.94;68.93
59531;BME280;45349;48.692;8.186;2023-12-28T07:49:52;148604.31;;;9.82;68.77
59531;BME280;45349;48.692;8.186;2023-12-28T07:52:20;148581.91;;;9.73;73.05
59531;BME280;45349;48.692;8.186;2023-12-28T07:54:46;148569.47;;;9.68;72.08
59531;BME280;45349;48.692;8.186;2023-12-28T07:57:13;148568.25;;;9.67;72.93
59531;BME280;45349;48.692;8.186;2023-12-28T07:59:40;148549.56;;;9.59;78.99
59531;BME280;45349;48.692;8.186;2023-12-28T08:02:06;148540.88;;;9.56;82.07
59531;BME280;45349;48.692;8.186;2023-12-28T08:04:34;148515.97;;;9.45;80.27
59531;BME280;45349;48.692;8.186;2023-12-28T08:07:00;148502.31;;;9.40;81.50
59531;BME280;45349;48.692;8.186;2023-12-28T08:09:28;148487.38;;;9.34;81.27
59531;BME280;45349;48.692;8.186;2023-12-28T08:11:55;148489.84;;;9.35;78.28
59531;BME280;45349;48.692;8.186;2023-12-28T08:14:22;148489.84;;;9.35;80.76
59531;BME280;45349;48.692;8.186;2023-12-28T08:16:48;148469.94;;;9.26;82.43
59531;BME280;45349;48.692;8.186;2023-12-28T08:19:17;148453.75;;;9.20;80.31
59531;BME280;45349;48.692;8.186;2023-12-28T08:21:44;148451.25;;;9.19;76.32
59531;BME280;45349;48.692;8.186;2023-12-28T08:24:11;148499.81;;;9.39;70.70
59531;BME280;45349;48.692;8.186;2023-12-28T08:26:39;148512.25;;;9.44;77.13
59531;BME280;45349;48.692;8.186;2023-12-28T08:29:05;148514.75;;;9.45;72.68
59531;BME280;45349;48.692;8.186;2023-12-28T08:31:32;148492.34;;;9.36;79.82
59531;BME280;45349;48.692;8.186;2023-12-28T08:33:59;148482.38;;;9.32;85.02
59531;BME280;45349;48.692;8.186;2023-12-28T08:36:26;148441.28;;;9.14;89.63
59531;BME280;45349;48.692;8.186;2023-12-28T08:38:52;148406.50;;;9.00;95.36
59531;BME280;45349;48.692;8.186;2023-12-28T08:41:19;148391.56;;;8.94;95.41
59531;BME280;45349;48.692;8.186;2023-12-28T08:43:47;148386.59;;;8.92;87.30
59531;BME280;45349;48.692;8.186;2023-12-28T08:46:14;148396.53;;;8.96;89.88
59531;BME280;45349;48.692;8.186;2023-12-28T08:48:41;148395.28;;;8.95;92.48
59531;BME280;45349;48.692;8.186;2023-12-28T08:51:09;148412.69;;;9.03;91.56
59531;BME280;45349;48.692;8.186;2023-12-28T08:53:36;148405.25;;;8.99;89.35
59531;BME280;45349;48.692;8.186;2023-12-28T08:56:11;148406.50;;;9.00;90.00
59531;BME280;45349;48.692;8.186;2023-12-28T08:58:38;148391.56;;;8.94;92.29
59531;BME280;45349;48.692;8.186;2023-12-28T09:01:06;148385.31;;;8.91;92.86
59531;BME280;45349;48.692;8.186;2023-12-28T09:03:33;148402.75;;;8.98;87.76
59531;BME280;45349;48.692;8.186;2023-12-28T09:05:59;148430.13;;;9.10;83.18
59531;BME280;45349;48.692;8.186;2023-12-28T09:08:26;148433.81;;;9.11;83.54
59531;BME280;45349;48.692;8.186;2023-12-28T09:10:53;148460.00;;;9.22;80.50
59531;BME280;45349;48.692;8.186;2023-12-28T09:13:19;148452.53;;;9.19;81.17
59531;BME280;45349;48.692;8.186;2023-12-28T09:15:46;148473.66;;;9.28;80.70
59531;BME280;45349;48.692;8.186;2023-12-28T09:18:14;148489.84;;;9.35;79.68
59531;BME280;45349;48.692;8.186;2023-12-28T09:20:40;148523.44;;;9.49;78.75
59531;BME280;45349;48.692;8.186;2023-12-28T09:23:07;148555.81;;;9.62;77.93
59531;BME280;45349;48.692;8.186;2023-12-28T09:25:35;148545.84;;;9.58;80.20
59531;BME280;45349;48.692;8.186;2023-12-28T09:28:04;148564.50;;;9.66;76.37
59531;BME280;45349;48.692;8.186;2023-12-28T09:30:31;148603.09;;;9.82;78.21
59531;BME280;45349;48.692;8.186;2023-12-28T09:32:57;148606.81;;;9.83;76.61
59531;BME280;45349;48.692;8.186;2023-12-28T09:35:25;148605.59;;;9.83;79.81
59531;BME280;45349;48.692;8.186;2023-12-28T09:37:52;148625.50;;;9.91;78.64
59531;BME280;45349;48.692;8.186;2023-12-28T09:40:19;148645.44;;;9.99;79.48
59531;BME280;45349;48.692;8.186;2023-12-28T09:42:52;148646.66;;;10.00;80.03
59531;BME280;45349;48.692;8.186;2023-12-28T09:45:20;148649.16;;;10.01;81.78
59531;BME280;45349;48.692;8.186;2023-12-28T09:47:47;148647.94;;;10.00;82.57
59531;BME280;45349;48.692;8.186;2023-12-28T09:50:17;148675.28;;;10.12;79.62
59531;BME280;45349;48.692;8.186;2023-12-28T09:52:45;148679.03;;;10.13;80.22
59531;BME280;45349;48.692;8.186;2023-12-28T09:55:12;148674.03;;;10.11;81.69
59531;BME280;45349;48.692;8.186;2023-12-28T09:57:39;148686.50;;;10.16;81.56
59531;BME280;45349;48.692;8.186;2023-12-28T10:00:08;148675.28;;;10.12;84.37
59531;BME280;45349;48.692;8.186;2023-12-28T10:02:43;148687.72;;;10.17;84.60
59531;BME280;45349;48.692;8.186;2023-12-28T10:05:12;148702.66;;;10.23;85.65
59531;BME280;45349;48.692;8.186;2023-12-28T10:07:41;148702.66;;;10.23;85.28
59531;BME280;45349;48.692;8.186;2023-12-28T10:10:09;148732.56;;;10.36;86.25
59531;BME280;45349;48.692;8.186;2023-12-28T10:12:36;148717.59;;;10.29;86.96
59531;BME280;45349;48.692;8.186;2023-12-28T10:15:04;148735.03;;;10.37;87.40
59531;BME280;45349;48.692;8.186;2023-12-28T10:17:32;148732.56;;;10.36;88.26
59531;BME280;45349;48.692;8.186;2023-12-28T10:19:59;148707.66;;;10.25;90.75
59531;BME280;45349;48.692;8.186;2023-12-28T10:22:30;148712.63;;;10.27;89.11
59531;BME280;45349;48.692;8.186;2023-12-28T10:24:57;148720.09;;;10.30;92.05
59531;BME280;45349;48.692;8.186;2023-12-28T10:27:26;148693.97;;;10.19;94.76
59531;BME280;45349;48.692;8.186;2023-12-28T10:29:53;148689.00;;;10.17;89.90
59531;BME280;45349;48.692;8.186;2023-12-28T10:32:20;148672.78;;;10.11;95.12
59531;BME280;45349;48.692;8.186;2023-12-28T10:34:48;148666.59;;;10.08;94.15
59531;BME280;45349;48.692;8.186;2023-12-28T10:37:16;148656.63;;;10.04;94.74
59531;BME280;45349;48.692;8.186;2023-12-28T10:39:47;148649.16;;;10.01;92.08
59531;BME280;45349;48.692;8.186;2023-12-28T10:42:22;148664.09;;;10.07;90.49
59531;BME280;45349;48.692;8.186;2023-12-28T10:45:01;148647.94;;;10.00;93.65
59531;BME280;45349;48.692;8.186;2023-12-28T10:47:31;148618.03;;;9.88;94.63
59531;BME280;45349;48.692;8.186;2023-12-28T10:50:02;148606.81;;;9.83;95.05
59531;BME280;45349;48.692;8.186;2023-12-28T10:52:30;148609.31;;;9.84;94.50
59531;BME280;45349;48.692;8.186;2023-12-28T10:55:10;148604.31;;;9.82;96.11
59531;BME280;45349;48.692;8.186;2023-12-28T10:57:54;148590.66;;;9.77;94.25
59531;BME280;45349;48.692;8.186;2023-12-28T11:00:30;148600.63;;;9.81;93.03
59531;BME280;45349;48.692;8.186;2023-12-28T11:03:03;148611.78;;;9.85;91.89
59531;BME280;45349;48.692;8.186;2023-12-28T11:05:32;148604.31;;;9.82;95.55
59531;BME280;45349;48.692;8.186;2023-12-28T11:07:59;148610.56;;;9.85;94.36
59531;BME280;45349;48.692;8.186;2023-12-28T11:10:26;148611.78;;;9.85;94.13
59531;BME280;45349;48.692;8.186;2023-12-28T11:12:56;148631.72;;;9.94;90.52
59531;BME280;45349;48.692;8.186;2023-12-28T11:15:23;148647.94;;;10.00;89.05
59531;BME280;45349;48.692;8.186;2023-12-28T11:17:52;148664.09;;;10.07;87.41
59531;BME280;45349;48.692;8.186;2023-12-28T11:20:19;148674.03;;;10.11;88.19
59531;BME280;45349;48.692;8.186;2023-12-28T11:22:46;148659.09;;;10.05;87.89
59531;BME280;45349;48.692;8.186;2023-12-28T11:25:15;148671.56;;;10.10;90.02
59531;BME280;45349;48.692;8.186;2023-12-28T11:27:42;148682.75;;;10.15;89.47
59531;BME280;45349;48.692;8.186;2023-12-28T11:30:10;148655.41;;;10.03;88.44
59531;BME280;45349;48.692;8.186;2023-12-28T11:32:37;148649.16;;;10.01;90.01
59531;BME280;45349;48.692;8.186;2023-12-28T11:35:08;148629.22;;;9.93;92.19
59531;BME280;45349;48.692;8.186;2023-12-28T11:37:36;148640.44;;;9.97;89.71
59531;BME280;45349;48.692;8.186;2023-12-28T11:40:12;148640.44;;;9.97;91.66
59531;BME280;45349;48.692;8.186;2023-12-28T11:42:49;148600.63;;;9.81;93.72
59531;BME280;45349;48.692;8.186;2023-12-28T11:45:16;148605.59;;;9.83;94.97
59531;BME280;45349;48.692;8.186;2023-12-28T11:47:43;148609.31;;;9.84;94.99
59531;BME280;45349;48.692;8.186;2023-12-28T11:50:12;148595.63;;;9.79;94.08
59531;BME280;45349;48.692;8.186;2023-12-28T11:52:39;148619.25;;;9.88;95.13
59531;BME280;45349;48.692;8.186;2023-12-28T11:55:06;148600.63;;;9.81;96.07
59531;BME280;45349;48.692;8.186;2023-12-28T11:57:33;148626.72;;;9.92;95.23
59531;BME280;45349;48.692;8.186;2023-12-28T12:00:02;148620.53;;;9.89;93.95
59531;BME280;45349;48.692;8.186;2023-12-28T12:02:30;148631.72;;;9.94;93.90
59531;BME280;45349;48.692;8.186;2023-12-28T12:04:56;148611.78;;;9.85;97.28
59531;BME280;45349;48.692;8.186;2023-12-28T12:07:25;148610.56;;;9.85;95.83
59531;BME280;45349;48.692;8.186;2023-12-28T12:09:55;148591.88;;;9.77;96.63
59531;BME280;45349;48.692;8.186;2023-12-28T12:12:22;148539.59;;;9.55;99.56
59531;BME280;45349;48.692;8.186;2023-12-28T12:14:48;148560.78;;;9.64;99.99
59531;BME280;45349;48.692;8.186;2023-12-28T12:17:15;148528.41;;;9.51;100.00
59531;BME280;45349;48.692;8.186;2023-12-28T12:19:42;148515.97;;;9.45;100.00
59531;BME280;45349;48.692;8.186;2023-12-28T12:22:08;148493.56;;;9.36;100.00
59531;BME280;45349;48.692;8.186;2023-12-28T12:24:37;148506.00;;;9.41;100.00
59531;BME280;45349;48.692;8.186;2023-12-28T12:27:06;148488.59;;;9.34;100.00
59531;BME280;45349;48.692;8.186;2023-12-28T12:29:33;148494.84;;;9.37;100.00
59531;BME280;45349;48.692;8.186;2023-12-28T12:32:00;148426.38;;;9.08;100.00
59531;BME280;45349;48.692;8.186;2023-12-28T12:34:28;148440.06;;;9.14;100.00
59531;BME280;45349;48.692;8.186;2023-12-28T12:36:55;148440.06;;;9.14;100.00
59531;BME280;45349;48.692;8.186;2023-12-28T12:39:23;148438.81;;;9.13;100.00
59531;BME280;45349;48.692;8.186;2023-12-28T12:41:51;148421.38;;;9.06;100.00
59531;BME280;45349;48.692;8.186;2023-12-28T12:44:19;148402.75;;;8.98;100.00
59531;BME280;45349;48.692;8.186;2023-12-28T12:46:46;148389.09;;;8.93;100.00
59531;BME280;45349;48.692;8.186;2023-12-28T12:49:13;148340.53;;;8.73;100.00
59531;BME280;45349;48.692;8.186;2023-12-28T12:51:40;148330.59;;;8.68;100.00
59531;BME280;45349;48.692;8.186;2023-12-28T12:54:07;148340.53;;;8.73;100.00